Terminal Aerodrome Forecast
Issued by NWS Sterling, VA

Current Version | Previous Version | Graphics & Text | Print | Product List | Glossary On
Versions: 1 2 3 4 5 6 7 8 9 10 11 12 13 14 15
315
FTUS41 KLWX 221120
TAFMRB
TAF
KMRB 221120Z 2212/2312 01005KT P6SM SCT100
     FM221400 08005KT P6SM OVC100
     FM222000 12006KT P6SM OVC050
     FM230600 06003KT P6SM OVC100=

USA.gov is the U.S. government's official web portal to all federal, state and local government web resources and services.